Time;durP1;ratioP1;P1;durP2;ratioP2;P2;SDS_P1;SDS_P2;PMS_P1;PMS_P2;Temp;Humidity;BMP_temperature;BMP_pressure;BME280_temperature;BME280_humidity;BME280_pressure;Samples;Min_cycle;Max_cycle;Signal;HPM_P1;HPM_P2
2022/08/31 00:04:31;;;;;;;10.73;3.42;;;23.20;92.50;;;;;;6369457;22;20014;-81
2022/08/31 00:06:57;;;;;;;9.35;3.95;;;22.90;93.30;;;;;;6342292;22;20306;-81
2022/08/31 00:09:23;;;;;;;5.40;2.90;;;22.90;93.60;;;;;;6369447;22;19998;-81
2022/08/31 00:11:49;;;;;;;4.85;2.83;;;22.80;93.50;;;;;;6370384;22;20002;-81
2022/08/31 00:14:15;;;;;;;4.68;2.35;;;22.60;94.10;;;;;;6369405;22;20075;-81
2022/08/31 00:16:43;;;;;;;5.03;2.33;;;22.70;94.60;;;;;;6369481;22;19998;-80
2022/08/31 00:19:09;;;;;;;5.07;2.40;;;22.60;94.40;;;;;;6369530;22;20070;-80
2022/08/31 00:21:37;;;;;;;2.40;2.00;;;23.00;94.20;;;;;;6369972;22;19998;-81
2022/08/31 00:24:04;;;;;;;3.13;1.90;;;23.20;93.80;;;;;;6369842;22;20005;-80
2022/08/31 00:26:29;;;;;;;2.92;2.00;;;23.40;93.10;;;;;;6369729;22;20078;-81
2022/08/31 00:28:55;;;;;;;3.08;2.00;;;23.60;92.80;;;;;;6369185;22;20033;-81
2022/08/31 00:31:21;;;;;;;1.58;1.48;;;23.60;92.30;;;;;;6369472;22;20002;-81
2022/08/31 00:33:51;;;;;;;3.38;1.90;;;23.80;92.20;;;;;;6369829;22;20070;-81
2022/08/31 00:36:20;;;;;;;2.60;2.33;;;23.90;91.80;;;;;;6369401;22;20002;-80
2022/08/31 00:38:48;;;;;;;4.00;2.88;;;23.70;91.60;;;;;;6369855;22;20097;-79
2022/08/31 00:41:14;;;;;;;2.92;2.20;;;23.50;92.10;;;;;;6369682;22;20409;-79
2022/08/31 00:43:46;;;;;;;3.70;2.60;;;23.30;92.80;;;;;;6342000;22;20002;-80
2022/08/31 00:46:15;;;;;;;3.20;1.80;;;23.20;92.90;;;;;;6369871;22;20309;-80
2022/08/31 00:48:47;;;;;;;2.92;1.88;;;23.40;92.50;;;;;;6369638;22;20077;-79
2022/08/31 00:51:13;;;;;;;2.97;1.85;;;23.70;92.10;;;;;;6368820;22;20002;-80
2022/08/31 00:53:38;;;;;;;4.20;2.53;;;23.90;91.70;;;;;;6370028;22;20051;-79
2022/08/31 00:56:04;;;;;;;4.10;2.40;;;23.70;91.60;;;;;;6369346;22;20415;-80
2022/08/31 00:58:30;;;;;;;5.13;2.40;;;23.30;92.00;;;;;;6369552;22;19998;-80
2022/08/31 01:00:58;;;;;;;4.20;2.50;;;23.10;92.60;;;;;;6368726;22;20065;-79
2022/08/31 01:03:24;;;;;;;5.72;2.63;;;23.00;92.70;;;;;;6369789;22;19999;-80
2022/08/31 01:05:51;;;;;;;2.35;2.15;;;22.80;93.10;;;;;;6369261;22;20006;-81
2022/08/31 01:08:17;;;;;;;3.17;2.63;;;22.70;93.10;;;;;;6370068;22;20397;-81
2022/08/31 01:10:44;;;;;;;2.33;2.13;;;22.50;93.80;;;;;;6368478;22;19998;-80
2022/08/31 01:13:11;;;;;;;2.85;1.70;;;22.40;94.50;;;;;;6369500;22;20010;-80
2022/08/31 01:15:41;;;;;;;3.05;2.03;;;22.70;93.90;;;;;;6369476;22;19995;-80
2022/08/31 01:18:08;;;;;;;3.38;2.03;;;22.50;93.80;;;;;;6369384;22;20017;-80
2022/08/31 01:20:53;;;;;;;2.10;1.65;;;22.70;93.90;;;;;;6368601;22;19994;-78
2022/08/31 01:23:21;;;;;;;3.92;1.80;;;22.80;93.40;;;;;;6369617;22;20451;-78
2022/08/31 01:25:48;;;;;;;2.75;1.60;;;22.20;94.10;;;;;;6369085;22;20021;-77
2022/08/31 01:28:14;;;;;;;2.60;1.77;;;21.90;94.30;;;;;;6369403;22;19995;-77
2022/08/31 01:30:42;;;;;;;1.85;1.02;;;21.70;94.80;;;;;;6369325;22;20293;-77
2022/08/31 01:33:10;;;;;;;2.33;1.20;;;21.80;95.40;;;;;;6368644;22;20005;-78
2022/08/31 01:35:36;;;;;;;2.58;1.15;;;21.80;95.20;;;;;;6368614;22;19994;-77
2022/08/31 01:38:03;;;;;;;2.47;1.70;;;22.20;94.50;;;;;;6341575;22;20002;-79
2022/08/31 01:40:45;;;;;;;4.15;1.75;;;22.00;94.20;;;;;;6369349;22;20006;-80
2022/08/31 01:43:11;;;;;;;1.48;1.10;;;22.00;94.30;;;;;;6369811;22;20003;-79
2022/08/31 01:45:36;;;;;;;1.65;0.95;;;22.30;93.80;;;;;;6341128;22;20007;-79
2022/08/31 01:48:02;;;;;;;2.85;1.30;;;22.60;93.20;;;;;;6342712;22;20401;-78
2022/08/31 01:50:28;;;;;;;1.27;1.02;;;22.90;92.80;;;;;;6371168;22;19998;-79
2022/08/31 01:52:54;;;;;;;2.50;1.30;;;23.10;92.30;;;;;;6371724;22;20013;-80
2022/08/31 01:55:20;;;;;;;3.15;1.58;;;22.90;91.30;;;;;;6370948;22;19994;-81
2022/08/31 01:57:45;;;;;;;1.98;1.40;;;22.50;91.90;;;;;;6371029;22;20019;-81
2022/08/31 02:00:11;;;;;;;1.10;0.90;;;22.30;92.30;;;;;;6371697;22;20388;-79
2022/08/31 02:02:37;;;;;;;1.92;1.10;;;22.40;92.50;;;;;;6371279;22;20092;-80
2022/08/31 02:05:04;;;;;;;1.38;0.90;;;22.30;91.90;;;;;;6343782;22;20002;-79
2022/08/31 02:07:29;;;;;;;1.90;1.02;;;22.10;92.80;;;;;;6371210;22;20006;-79
2022/08/31 02:09:55;;;;;;;1.70;1.38;;;22.00;92.30;;;;;;6342889;22;20013;-79
2022/08/31 02:12:21;;;;;;;2.03;1.10;;;21.70;92.80;;;;;;6342366;22;20030;-79
2022/08/31 02:14:46;;;;;;;1.83;1.00;;;21.70;92.90;;;;;;6370260;22;20061;-79
2022/08/31 02:17:12;;;;;;;1.60;0.90;;;22.00;93.10;;;;;;6370513;22;20067;-79
2022/08/31 02:19:38;;;;;;;1.23;0.80;;;22.10;92.20;;;;;;6371108;22;20054;-79
2022/08/31 02:22:04;;;;;;;2.03;1.40;;;21.80;92.50;;;;;;6370260;22;19998;-78
2022/08/31 02:24:29;;;;;;;1.75;1.40;;;21.60;93.20;;;;;;6370957;22;20013;-78
2022/08/31 02:26:55;;;;;;;3.05;1.40;;;21.60;93.60;;;;;;6370847;22;20003;-79
2022/08/31 02:29:21;;;;;;;1.00;0.90;;;21.60;93.50;;;;;;6371026;22;20308;-79
2022/08/31 02:31:47;;;;;;;2.30;0.98;;;21.70;93.40;;;;;;6370928;22;20011;-79
2022/08/31 02:34:12;;;;;;;2.45;1.00;;;21.60;93.70;;;;;;6370875;22;19999;-79
2022/08/31 02:36:39;;;;;;;1.35;1.15;;;21.70;94.00;;;;;;6371163;22;20055;-79
2022/08/31 02:39:04;;;;;;;2.58;1.20;;;21.70;94.20;;;;;;6342764;22;20017;-78
2022/08/31 02:41:30;;;;;;;2.83;1.65;;;21.70;93.70;;;;;;6342627;22;20006;-79
2022/08/31 02:43:56;;;;;;;1.77;1.30;;;21.60;93.80;;;;;;6370093;22;19998;-78
2022/08/31 02:46:21;;;;;;;6.43;1.77;;;21.60;93.50;;;;;;6370553;22;20026;-82
2022/08/31 02:48:47;;;;;;;5.38;2.13;;;21.70;93.40;;;;;;6370746;22;20002;-81
2022/08/31 02:51:13;;;;;;;6.82;2.08;;;21.80;94.20;;;;;;6370021;22;20404;-81
2022/08/31 02:53:39;;;;;;;4.53;1.85;;;21.70;94.80;;;;;;6370351;22;19995;-80
2022/08/31 02:56:06;;;;;;;5.60;2.03;;;21.70;95.00;;;;;;6370585;22;19999;-80
2022/08/31 02:58:32;;;;;;;6.80;1.92;;;22.00;94.50;;;;;;6369677;22;20044;-81
2022/08/31 03:00:58;;;;;;;6.60;2.53;;;21.90;94.90;;;;;;6370236;22;20424;-79
2022/08/31 03:03:24;;;;;;;5.60;2.53;;;21.90;95.30;;;;;;6370892;22;19995;-79
2022/08/31 03:05:50;;;;;;;1.17;0.90;;;21.90;95.20;;;;;;6342760;22;20428;-80
2022/08/31 03:08:16;;;;;;;3.80;1.77;;;22.00;95.00;;;;;;6370093;22;20069;-78
2022/08/31 03:10:42;;;;;;;4.85;2.05;;;22.20;94.90;;;;;;6370397;22;19995;-77
2022/08/31 03:13:08;;;;;;;2.08;1.70;;;21.90;94.40;;;;;;6370174;22;20007;-80
2022/08/31 03:15:33;;;;;;;4.95;1.83;;;22.00;94.90;;;;;;6370216;22;20071;-78
2022/08/31 03:17:59;;;;;;;3.75;1.88;;;22.10;94.80;;;;;;6370746;22;20029;-79
2022/08/31 03:20:49;;;;;;;1.70;1.13;;;22.20;94.40;;;;;;6369804;22;20085;-80
2022/08/31 03:23:15;;;;;;;3.05;2.08;;;22.40;93.90;;;;;;6370637;22;20014;-79
2022/08/31 03:25:41;;;;;;;3.85;1.75;;;22.50;94.10;;;;;;6370282;22;20003;-81
2022/08/31 03:28:06;;;;;;;3.50;1.90;;;22.40;93.90;;;;;;6342405;22;20440;-80
2022/08/31 03:30:32;;;;;;;3.90;2.15;;;21.80;94.80;;;;;;6369554;22;19999;-80
2022/08/31 03:32:58;;;;;;;3.58;1.63;;;21.60;95.90;;;;;;6370065;22;20007;-79
2022/08/31 03:35:24;;;;;;;3.05;1.33;;;21.60;96.10;;;;;;6370047;22;19999;-79
2022/08/31 03:37:50;;;;;;;2.70;1.95;;;22.00;95.40;;;;;;6370329;22;20008;-79
2022/08/31 03:40:15;;;;;;;4.13;1.52;;;22.10;95.50;;;;;;6369774;22;20323;-78
2022/08/31 03:42:43;;;;;;;3.72;2.40;;;22.30;95.00;;;;;;6369870;22;20002;-79
2022/08/31 03:45:09;;;;;;;5.50;2.13;;;22.20;94.80;;;;;;6367384;22;20493;-79
2022/08/31 03:47:35;;;;;;;3.83;1.90;;;22.40;95.00;;;;;;6369058;22;20066;-78
2022/08/31 03:50:03;;;;;;;3.38;1.40;;;22.30;94.90;;;;;;6368613;22;19998;-79
2022/08/31 03:52:29;;;;;;;4.15;1.63;;;22.40;94.50;;;;;;6369368;22;20002;-80
2022/08/31 03:54:55;;;;;;;2.90;1.88;;;22.40;94.70;;;;;;6367170;22;20104;-79
2022/08/31 03:57:20;;;;;;;3.35;1.77;;;22.30;93.90;;;;;;6369023;22;19994;-79
2022/08/31 03:59:53;;;;;;;2.88;1.55;;;22.20;94.40;;;;;;6369927;22;19999;-79
2022/08/31 04:02:19;;;;;;;3.22;1.30;;;22.40;94.10;;;;;;6370471;22;20002;-85
2022/08/31 04:04:50;;;;;;;4.78;1.55;;;22.50;94.30;;;;;;6370436;22;20095;-85
2022/08/31 04:07:17;;;;;;;2.88;1.67;;;22.60;94.40;;;;;;6370145;22;20049;-85
2022/08/31 04:09:43;;;;;;;2.53;1.20;;;22.60;93.90;;;;;;6370021;22;20526;-84
2022/08/31 04:12:09;;;;;;;2.20;1.20;;;22.60;93.90;;;;;;6369216;22;20002;-82
2022/08/31 04:14:34;;;;;;;4.00;1.85;;;22.80;93.90;;;;;;6369592;22;20019;-82
2022/08/31 04:17:00;;;;;;;2.83;1.38;;;22.90;94.00;;;;;;6369325;22;20375;-82
2022/08/31 04:19:26;;;;;;;3.05;1.58;;;22.90;93.80;;;;;;6368516;22;20002;-83
2022/08/31 04:21:51;;;;;;;6.88;1.67;;;22.90;93.60;;;;;;6369549;22;20370;-82
2022/08/31 04:24:17;;;;;;;3.33;1.40;;;22.90;93.00;;;;;;6368942;22;20013;-82
2022/08/31 04:26:43;;;;;;;2.13;1.20;;;22.70;93.00;;;;;;6370069;22;20420;-82
2022/08/31 04:29:10;;;;;;;1.67;1.00;;;22.60;93.50;;;;;;6369428;22;20439;-84
2022/08/31 04:31:36;;;;;;;2.47;1.20;;;22.70;93.40;;;;;;6368814;22;20008;-83
2022/08/31 04:34:03;;;;;;;2.17;1.20;;;22.70;93.50;;;;;;6369398;22;20327;-84
2022/08/31 04:36:30;;;;;;;2.38;1.55;;;22.70;93.40;;;;;;6369505;22;20003;-84
2022/08/31 04:38:58;;;;;;;1.38;1.10;;;22.80;94.00;;;;;;6370085;22;20389;-83
2022/08/31 04:41:27;;;;;;;3.75;1.40;;;22.70;93.70;;;;;;6370110;22;20009;-83
2022/08/31 04:43:56;;;;;;;1.83;1.27;;;22.70;93.40;;;;;;6370470;22;20005;-84
2022/08/31 04:46:22;;;;;;;2.92;1.13;;;22.90;93.40;;;;;;6368993;22;20010;-81
2022/08/31 04:48:48;;;;;;;3.20;1.95;;;23.00;93.30;;;;;;6369265;22;20003;-82
2022/08/31 04:51:17;;;;;;;4.88;1.90;;;23.00;93.30;;;;;;6369778;22;20026;-85
2022/08/31 04:53:44;;;;;;;4.53;2.00;;;23.00;93.20;;;;;;6369892;22;20002;-85
2022/08/31 04:56:16;;;;;;;2.20;1.55;;;22.90;93.20;;;;;;6340369;22;20003;-79
2022/08/31 04:58:47;;;;;;;2.92;1.73;;;23.00;93.60;;;;;;6368726;22;19995;-80
2022/08/31 05:01:16;;;;;;;2.38;1.83;;;22.90;93.50;;;;;;6368930;22;20002;-78
2022/08/31 05:03:42;;;;;;;2.13;1.20;;;22.90;93.70;;;;;;6368958;22;20002;-80
2022/08/31 05:06:13;;;;;;;2.78;1.08;;;22.90;93.60;;;;;;6368076;22;20029;-80
2022/08/31 05:08:39;;;;;;;2.20;1.52;;;23.00;93.30;;;;;;6369510;22;19999;-79
2022/08/31 05:11:17;;;;;;;1.75;1.48;;;23.00;93.20;;;;;;6368498;22;20030;-79
2022/08/31 05:13:44;;;;;;;1.35;0.95;;;23.10;93.00;;;;;;6369496;22;20006;-80
2022/08/31 05:16:15;;;;;;;1.48;1.13;;;23.20;93.00;;;;;;6368542;22;20048;-80
2022/08/31 05:18:42;;;;;;;1.88;1.30;;;23.20;92.60;;;;;;6341353;22;20081;-79
2022/08/31 05:21:11;;;;;;;2.75;1.70;;;23.20;92.80;;;;;;6369608;22;20006;-79
2022/08/31 05:23:38;;;;;;;4.60;1.90;;;23.00;92.60;;;;;;6370081;22;20107;-80
2022/08/31 05:26:04;;;;;;;1.85;1.25;;;23.00;92.80;;;;;;6371235;22;19998;-81
2022/08/31 05:28:32;;;;;;;2.13;1.33;;;23.10;92.70;;;;;;6371048;22;20305;-80
2022/08/31 05:30:58;;;;;;;8.70;2.38;;;23.10;92.90;;;;;;6370118;22;20401;-78
2022/08/31 05:33:23;;;;;;;2.15;1.38;;;23.10;93.00;;;;;;6371069;22;20081;-81
2022/08/31 05:35:49;;;;;;;3.58;1.70;;;23.10;92.80;;;;;;6370667;22;20040;-83
2022/08/31 05:38:15;;;;;;;2.50;1.83;;;23.10;93.00;;;;;;6370422;22;20002;-83
2022/08/31 05:40:40;;;;;;;3.17;1.38;;;23.20;93.10;;;;;;6342570;22;20443;-81
2022/08/31 05:43:06;;;;;;;1.60;1.33;;;23.20;92.90;;;;;;6371300;22;20006;-80
2022/08/31 05:45:32;;;;;;;4.03;1.35;;;23.20;92.70;;;;;;6370245;22;20002;-82
2022/08/31 05:47:57;;;;;;;2.83;1.35;;;23.20;92.80;;;;;;6369264;22;20029;-82
2022/08/31 05:50:23;;;;;;;2.90;1.70;;;23.20;92.70;;;;;;6343047;22;20421;-79
2022/08/31 05:52:49;;;;;;;2.53;1.50;;;23.30;92.60;;;;;;6371016;22;19998;-81
2022/08/31 05:55:15;;;;;;;1.70;1.42;;;23.20;92.70;;;;;;6370748;22;20021;-86
2022/08/31 05:57:40;;;;;;;3.00;1.85;;;23.30;92.60;;;;;;6371488;22;19994;-80
2022/08/31 06:00:09;;;;;;;1.80;1.50;;;23.30;92.50;;;;;;6369676;22;20000;-87
2022/08/31 06:02:51;;;;;;;2.28;1.50;;;23.20;92.30;;;;;;6370173;22;20444;-85
2022/08/31 06:05:17;;;;;;;7.45;1.67;;;23.20;92.30;;;;;;6370225;22;20043;-86
2022/08/31 06:07:44;;;;;;;3.03;1.52;;;23.20;92.30;;;;;;6371622;22;20003;-86
2022/08/31 06:10:10;;;;;;;3.08;1.63;;;23.20;92.20;;;;;;6371161;22;20401;-86
2022/08/31 06:12:37;;;;;;;3.42;1.10;;;23.10;91.90;;;;;;6372110;22;20043;-86
2022/08/31 06:15:04;;;;;;;1.77;1.15;;;23.00;92.10;;;;;;6343963;22;20037;-86
2022/08/31 06:17:31;;;;;;;1.73;1.30;;;23.00;92.30;;;;;;6371325;22;20003;-83
2022/08/31 06:19:58;;;;;;;2.28;1.60;;;23.10;92.40;;;;;;6370266;22;20032;-83
2022/08/31 06:22:24;;;;;;;2.05;1.45;;;23.20;92.40;;;;;;6370798;22;20103;-83
2022/08/31 06:24:50;;;;;;;1.20;1.00;;;23.20;92.30;;;;;;6371136;22;20002;-85
2022/08/31 06:27:16;;;;;;;2.00;1.17;;;23.20;92.20;;;;;;6371103;22;20034;-83
2022/08/31 06:29:42;;;;;;;2.28;1.40;;;23.10;92.10;;;;;;6370918;22;20428;-83
2022/08/31 06:32:09;;;;;;;3.28;1.50;;;23.10;92.30;;;;;;6372678;22;20026;-84
2022/08/31 06:34:36;;;;;;;1.63;1.17;;;23.10;92.40;;;;;;6344149;22;20420;-84
2022/08/31 06:37:03;;;;;;;2.50;1.42;;;23.20;92.40;;;;;;6371196;22;19994;-84
2022/08/31 06:39:29;;;;;;;2.42;1.70;;;23.30;92.50;;;;;;6370924;22;19995;-86
2022/08/31 06:41:55;;;;;;;1.75;1.40;;;23.30;92.60;;;;;;6370786;22;20010;-87
2022/08/31 06:44:22;;;;;;;2.70;1.50;;;23.40;92.60;;;;;;6370412;22;20002;-86
2022/08/31 06:46:50;;;;;;;2.53;1.48;;;23.40;92.40;;;;;;6370506;22;19998;-84
2022/08/31 06:49:16;;;;;;;2.40;1.55;;;23.40;92.30;;;;;;6370378;22;20029;-84
2022/08/31 06:51:42;;;;;;;2.33;1.50;;;23.40;92.10;;;;;;6370568;22;20420;-85
2022/08/31 06:54:11;;;;;;;1.58;1.33;;;23.50;92.10;;;;;;6371174;22;20412;-85
2022/08/31 06:56:38;;;;;;;2.55;1.55;;;23.50;92.10;;;;;;6370754;22;19994;-85
2022/08/31 06:59:04;;;;;;;2.30;1.75;;;23.50;92.20;;;;;;6370381;22;20425;-85
2022/08/31 07:01:32;;;;;;;3.15;1.90;;;23.60;92.10;;;;;;6370801;22;20102;-88
2022/08/31 07:04:00;;;;;;;2.08;1.60;;;23.60;91.90;;;;;;6371029;22;20009;-86
2022/08/31 07:06:33;;;;;;;7.13;1.75;;;23.60;91.90;;;;;;6343014;22;20012;-86
2022/08/31 07:09:02;;;;;;;3.45;1.58;;;23.60;92.20;;;;;;6370797;22;20006;-87
2022/08/31 07:11:40;;;;;;;2.63;1.75;;;23.50;91.70;;;;;;6372346;22;19998;-87
2022/08/31 07:14:08;;;;;;;3.22;1.80;;;23.30;91.80;;;;;;6368210;22;20078;-85
2022/08/31 07:16:35;;;;;;;5.88;2.25;;;23.30;92.20;;;;;;6365700;22;20047;-86
2022/08/31 07:19:03;;;;;;;1.67;1.40;;;23.30;92.20;;;;;;6369719;22;20013;-87
2022/08/31 07:21:38;;;;;;;2.33;1.52;;;23.20;92.30;;;;;;6342581;22;20007;-86
2022/08/31 07:24:05;;;;;;;2.60;1.17;;;23.10;91.80;;;;;;6370378;22;19998;-86
2022/08/31 07:26:36;;;;;;;2.70;1.70;;;23.10;92.30;;;;;;6370764;22;20045;-86
2022/08/31 07:29:05;;;;;;;3.47;1.30;;;23.30;92.60;;;;;;6370562;22;20006;-86
2022/08/31 07:31:45;;;;;;;2.28;1.52;;;23.00;92.30;;;;;;6370814;22;20002;-87
2022/08/31 07:34:13;;;;;;;2.13;1.30;;;23.20;92.70;;;;;;6370466;22;20120;-86
2022/08/31 07:42:09;;;;;;;2.17;1.30;;;23.50;92.60;;;;;;6370820;22;20132;-86
2022/08/31 07:44:35;;;;;;;1.35;1.20;;;23.60;92.10;;;;;;6370358;22;20002;-85
2022/08/31 07:47:01;;;;;;;2.00;1.25;;;23.70;92.30;;;;;;6369887;22;20069;-87
2022/08/31 07:49:27;;;;;;;1.67;1.20;;;23.80;92.30;;;;;;6342646;22;20051;-87
2022/08/31 07:51:54;;;;;;;2.05;1.33;;;24.00;92.20;;;;;;6370610;22;20003;-87
2022/08/31 07:54:26;;;;;;;2.78;1.35;;;24.10;92.00;;;;;;6343128;22;20355;-87
2022/08/31 07:56:53;;;;;;;2.25;1.27;;;24.20;91.50;;;;;;6370224;22;20417;-88
2022/08/31 07:59:21;;;;;;;1.95;1.50;;;24.30;92.10;;;;;;6369519;22;19999;-88
2022/08/31 08:01:48;;;;;;;2.35;1.00;;;24.40;91.70;;;;;;6367734;22;19998;-87
2022/08/31 08:04:24;;;;;;;2.03;1.55;;;24.50;91.10;;;;;;6369123;22;20002;-88
2022/08/31 08:06:54;;;;;;;4.05;1.73;;;24.60;91.20;;;;;;6369051;22;20030;-85
2022/08/31 08:09:29;;;;;;;4.75;1.58;;;24.60;90.80;;;;;;6369177;22;20081;-84
2022/08/31 08:12:05;;;;;;;2.85;1.60;;;24.60;90.50;;;;;;6367949;22;20010;-85
2022/08/31 08:14:53;;;;;;;2.33;1.85;;;24.50;90.40;;;;;;6369575;22;20010;-84
2022/08/31 08:17:19;;;;;;;1.67;1.50;;;24.10;88.90;;;;;;6341847;22;19998;-84
2022/08/31 08:19:45;;;;;;;3.15;1.90;;;24.20;90.20;;;;;;6369104;22;20025;-84
2022/08/31 08:22:11;;;;;;;1.85;1.50;;;24.20;89.50;;;;;;6365818;22;20010;-84
2022/08/31 08:24:38;;;;;;;2.55;1.80;;;24.20;90.40;;;;;;6341977;22;20097;-84
2022/08/31 08:27:04;;;;;;;2.67;1.77;;;24.20;90.10;;;;;;6368041;22;20003;-85
2022/08/31 08:29:30;;;;;;;3.33;2.20;;;24.20;90.10;;;;;;6369411;22;20321;-81
2022/08/31 08:31:56;;;;;;;2.40;1.70;;;24.20;89.00;;;;;;6367914;22;20041;-81
2022/08/31 08:34:22;;;;;;;1.80;1.55;;;24.20;90.30;;;;;;6368033;22;20005;-81
2022/08/31 08:36:49;;;;;;;2.38;1.90;;;24.40;90.30;;;;;;6368280;22;20329;-82
2022/08/31 08:39:16;;;;;;;1.92;1.67;;;24.60;90.40;;;;;;6370267;22;20073;-81
2022/08/31 08:41:43;;;;;;;2.63;1.95;;;24.80;90.40;;;;;;6368466;22;20069;-82
2022/08/31 08:44:12;;;;;;;1.85;1.70;;;24.80;89.60;;;;;;6369339;22;19998;-82
2022/08/31 08:46:50;;;;;;;2.05;1.70;;;25.00;89.80;;;;;;6342355;22;20003;-82
2022/08/31 08:49:38;;;;;;;2.40;2.20;;;25.00;89.50;;;;;;6370060;22;20003;-81
2022/08/31 08:52:11;;;;;;;3.92;2.55;;;25.00;88.90;;;;;;6346172;22;20002;-81
2022/08/31 08:54:42;;;;;;;4.03;1.85;;;24.40;87.70;;;;;;6369940;22;20466;-81
2022/08/31 08:57:14;;;;;;;5.43;1.88;;;24.50;88.60;;;;;;6371069;22;20002;-81
2022/08/31 08:59:44;;;;;;;4.50;2.33;;;24.50;89.20;;;;;;6372069;22;19994;-80
2022/08/31 09:02:18;;;;;;;;;;;24.70;89.40;;;;;;6372720;22;20013;-81
2022/08/31 09:05:02;;;;;;;2.65;2.00;;;24.80;90.10;;;;;;6372113;22;20365;-81
2022/08/31 09:08:15;;;;;;;3.30;2.38;;;24.90;89.50;;;;;;6370962;22;19999;-80
2022/08/31 09:10:50;;;;;;;3.10;2.60;;;25.00;88.90;;;;;;6342479;22;20332;-81
2022/08/31 09:13:47;;;;;;;3.50;2.40;;;25.20;87.90;;;;;;6337277;22;20021;-81
2022/08/31 09:16:48;;;;;;;3.33;2.55;;;25.40;88.30;;;;;;6340186;22;20006;-83
2022/08/31 09:19:17;;;;;;;3.70;2.58;;;25.70;87.90;;;;;;6340357;22;19994;-84
2022/08/31 09:21:53;;;;;;;2.35;2.15;;;25.90;86.60;;;;;;6340257;22;19999;-83
2022/08/31 09:24:22;;;;;;;10.20;3.40;;;26.00;85.90;;;;;;6340186;22;20048;-84
2022/08/31 09:27:18;;;;;;;3.08;2.30;;;25.90;83.30;;;;;;6334848;22;20003;-83
2022/08/31 09:29:52;;;;;;;2.92;2.40;;;25.90;84.10;;;;;;6340421;22;20002;-82
2022/08/31 09:32:23;;;;;;;4.30;2.28;;;26.00;84.90;;;;;;6338334;22;20026;-83
2022/08/31 09:35:00;;;;;;;3.97;3.05;;;26.10;85.20;;;;;;6335397;22;20015;-83
2022/08/31 09:37:39;;;;;;;2.85;2.25;;;26.30;82.50;;;;;;6338007;22;20021;-83
2022/08/31 09:40:15;;;;;;;3.13;2.83;;;26.50;83.80;;;;;;6337299;22;20003;-83
2022/08/31 09:42:45;;;;;;;5.57;2.38;;;26.60;81.90;;;;;;6339130;22;20003;-83
2022/08/31 09:45:28;;;;;;;3.45;2.30;;;26.60;83.00;;;;;;6339443;22;20072;-82
2022/08/31 09:47:59;;;;;;;3.58;2.72;;;26.70;83.00;;;;;;6338712;22;19999;-83
2022/08/31 09:50:43;;;;;;;3.45;2.50;;;26.70;82.60;;;;;;6338497;22;20052;-83
2022/08/31 09:56:20;;;;;;;3.15;2.33;;;26.70;81.90;;;;;;6339075;22;20052;-82
2022/08/31 09:58:51;;;;;;;3.63;2.30;;;26.60;80.90;;;;;;6339139;22;20002;-83
2022/08/31 10:01:45;;;;;;;3.60;2.70;;;26.70;81.70;;;;;;6339043;22;20009;-82
2022/08/31 10:04:18;;;;;;;3.35;2.35;;;26.80;81.20;;;;;;6339678;22;20002;-82
2022/08/31 10:07:00;;;;;;;3.70;2.60;;;27.10;82.00;;;;;;6339389;22;20027;-83
2022/08/31 10:09:37;;;;;;;4.68;2.33;;;27.30;81.40;;;;;;6337995;22;20081;-83
2022/08/31 10:12:10;;;;;;;5.65;2.97;;;27.40;80.20;;;;;;6339355;22;20485;-83
2022/08/31 10:14:49;;;;;;;2.45;2.20;;;26.90;77.30;;;;;;6360233;22;20010;-83
2022/08/31 10:17:24;;;;;;;4.07;2.40;;;27.10;79.10;;;;;;6370825;22;20009;-83
2022/08/31 10:20:05;;;;;;;4.22;2.30;;;27.10;77.70;;;;;;6371048;22;20082;-87
2022/08/31 10:22:46;;;;;;;2.22;2.00;;;27.40;78.40;;;;;;6369284;22;19998;-87
2022/08/31 10:25:39;;;;;;;2.75;1.80;;;27.70;78.30;;;;;;6371701;22;20082;-87
2022/08/31 10:28:14;;;;;;;4.68;2.53;;;28.00;77.80;;;;;;6343937;22;20340;-88
2022/08/31 10:31:06;;;;;;;2.53;2.00;;;28.20;75.40;;;;;;6371266;22;20082;-87
2022/08/31 10:36:26;;;;;;;2.65;2.00;;;28.40;75.80;;;;;;6368496;22;20008;-87
2022/08/31 10:38:55;;;;;;;2.40;1.92;;;28.60;75.50;;;;;;6369235;22;19994;-87
2022/08/31 10:41:29;;;;;;;3.33;2.33;;;28.80;75.80;;;;;;6343424;22;20006;-86
2022/08/31 10:44:22;;;;;;;2.85;2.25;;;29.00;75.60;;;;;;6371776;22;20077;-87
2022/08/31 10:46:50;;;;;;;4.90;2.65;;;29.10;74.20;;;;;;6371422;22;20005;-87
2022/08/31 10:49:17;;;;;;;2.92;2.30;;;29.40;74.40;;;;;;6344055;22;20030;-87
2022/08/31 10:52:04;;;;;;;3.40;2.65;;;29.60;74.00;;;;;;6370428;22;20008;-88
2022/08/31 10:54:48;;;;;;;3.10;2.25;;;29.70;69.60;;;;;;6370401;22;20077;-86
2022/08/31 10:57:49;;;;;;;3.20;2.20;;;29.70;71.50;;;;;;6370605;22;19994;-85
2022/08/31 11:00:44;;;;;;;3.55;2.40;;;29.80;71.70;;;;;;6368847;22;20366;-85
2022/08/31 11:03:18;;;;;;;2.78;2.13;;;30.00;71.80;;;;;;6369589;22;20059;-85
2022/08/31 11:05:59;;;;;;;4.88;2.83;;;30.20;71.30;;;;;;6370808;22;20002;-86
2022/08/31 11:08:48;;;;;;;5.20;3.20;;;29.90;66.50;;;;;;6342638;22;20047;-86
2022/08/31 11:11:35;;;;;;;2.63;2.30;;;28.80;69.90;;;;;;6370237;22;20075;-87
2022/08/31 11:14:13;;;;;;;2.90;2.25;;;28.70;70.80;;;;;;6370495;22;20386;-86
2022/08/31 11:16:51;;;;;;;5.22;2.58;;;29.00;71.10;;;;;;6370952;22;20366;-86
2022/08/31 11:19:25;;;;;;;2.72;2.00;;;29.10;69.30;;;;;;6343265;22;20026;-86
2022/08/31 11:22:33;;;;;;;5.30;2.38;;;29.40;70.10;;;;;;6369126;22;20085;-86
2022/08/31 11:25:06;;;;;;;3.15;2.13;;;29.70;69.20;;;;;;6342717;22;20006;-87
2022/08/31 11:27:53;;;;;;;2.97;2.20;;;29.80;68.50;;;;;;6371084;22;20030;-87
2022/08/31 11:30:27;;;;;;;2.28;1.90;;;29.50;68.10;;;;;;6371486;22;20002;-88
2022/08/31 11:32:56;;;;;;;5.30;2.78;;;29.80;68.90;;;;;;6369649;22;20005;-87
2022/08/31 11:35:56;;;;;;;2.10;1.90;;;29.90;67.30;;;;;;6369961;22;20420;-87
2022/08/31 11:38:53;;;;;;;4.05;2.67;;;29.90;68.50;;;;;;6369614;22;20040;-87
2022/08/31 11:41:45;;;;;;;2.92;1.88;;;29.80;66.60;;;;;;6367037;22;20025;-87
2022/08/31 11:44:30;;;;;;;5.28;2.50;;;29.40;68.00;;;;;;6362682;22;20069;-87
2022/08/31 11:47:18;;;;;;;2.65;2.10;;;29.70;69.50;;;;;;6341166;22;20002;-87
2022/08/31 11:49:50;;;;;;;2.47;1.83;;;30.30;66.80;;;;;;6342424;22;20034;-87
2022/08/31 11:52:28;;;;;;;3.25;2.13;;;30.90;68.00;;;;;;6342062;22;20375;-89
2022/08/31 11:54:59;;;;;;;2.75;1.70;;;31.30;63.60;;;;;;6372022;22;20027;-87
2022/08/31 11:57:30;;;;;;;2.92;2.38;;;31.60;64.50;;;;;;6372019;22;19994;-87
2022/08/31 11:59:57;;;;;;;2.63;2.28;;;31.10;63.00;;;;;;6371474;22;20021;-88
2022/08/31 12:02:24;;;;;;;2.28;1.85;;;30.80;64.50;;;;;;6343732;22;20006;-87
2022/08/31 12:04:56;;;;;;;4.30;2.22;;;30.80;65.30;;;;;;6343219;22;20085;-87
2022/08/31 12:07:34;;;;;;;3.38;2.50;;;31.00;65.90;;;;;;6371386;22;20006;-89
2022/08/31 12:10:06;;;;;;;2.90;2.30;;;30.90;62.90;;;;;;6372710;22;20009;-89
2022/08/31 12:12:56;;;;;;;3.17;1.48;;;30.30;64.10;;;;;;6348612;22;20003;-86
2022/08/31 12:16:00;;;;;;;4.43;1.98;;;30.20;65.20;;;;;;6373194;22;20006;-87
2022/08/31 12:18:41;;;;;;;4.63;2.13;;;30.20;65.70;;;;;;6344046;22;19998;-87
2022/08/31 12:24:21;;;;;;;3.17;2.88;;;30.30;68.10;;;;;;6369121;22;20044;-86
2022/08/31 12:26:56;;;;;;;4.63;2.33;;;30.60;67.60;;;;;;6369193;22;20029;-87
2022/08/31 12:29:34;;;;;;;4.90;3.50;;;30.50;67.30;;;;;;6368697;22;20409;-87
2022/08/31 12:32:30;;;;;;;4.22;3.35;;;30.40;66.60;;;;;;6369037;22;20402;-86
2022/08/31 12:35:04;;;;;;;5.90;3.53;;;30.30;68.00;;;;;;6368701;22;19994;-87
2022/08/31 12:37:33;;;;;;;3.72;2.53;;;30.00;68.40;;;;;;6368922;22;19994;-86
2022/08/31 12:40:19;;;;;;;3.00;2.10;;;29.80;68.80;;;;;;6367896;22;20442;-85
2022/08/31 12:42:57;;;;;;;3.45;2.50;;;29.80;69.60;;;;;;6339972;22;20003;-85
2022/08/31 12:45:49;;;;;;;3.70;2.17;;;29.90;70.20;;;;;;6367425;22;19999;-85
2022/08/31 12:48:42;;;;;;;3.67;2.63;;;30.00;70.00;;;;;;6347631;22;20068;-82
2022/08/31 12:51:15;;;;;;;3.17;2.05;;;30.30;68.60;;;;;;6366911;22;20427;-84
2022/08/31 12:53:50;;;;;;;3.38;3.00;;;30.80;68.10;;;;;;6340207;22;20424;-84
2022/08/31 12:56:51;;;;;;;10.85;3.08;;;31.20;65.50;;;;;;6367868;22;19998;-83
2022/08/31 12:59:54;;;;;;;2.72;2.30;;;31.40;66.10;;;;;;6333682;22;20100;-84
2022/08/31 13:02:21;;;;;;;2.50;2.30;;;31.30;66.40;;;;;;6368060;22;20002;-85
2022/08/31 13:04:47;;;;;;;3.78;2.45;;;31.30;66.70;;;;;;6340375;22;20243;-84
2022/08/31 13:07:33;;;;;;;3.72;2.25;;;31.30;66.40;;;;;;6367981;22;20366;-85
2022/08/31 13:10:02;;;;;;;2.42;2.22;;;31.60;66.00;;;;;;6367735;22;20002;-85
2022/08/31 13:12:28;;;;;;;4.13;2.20;;;31.70;66.40;;;;;;6367662;22;20086;-85
2022/08/31 13:14:53;;;;;;;4.80;2.88;;;31.50;66.20;;;;;;6367229;22;20444;-86
2022/08/31 13:17:22;;;;;;;3.10;2.47;;;31.30;66.40;;;;;;6368137;22;20330;-85
2022/08/31 13:19:57;;;;;;;2.92;2.30;;;31.10;66.70;;;;;;6368588;22;20069;-82
2022/08/31 13:22:56;;;;;;;2.97;2.40;;;30.90;67.40;;;;;;6368881;22;20010;-85
2022/08/31 13:25:35;;;;;;;4.82;2.28;;;30.80;66.90;;;;;;6340435;22;20358;-85
2022/08/31 13:28:12;;;;;;;3.03;2.20;;;30.80;67.30;;;;;;6341441;22;20063;-85